Terminal Aerodrome Forecast
Issued by NWS

Home | Current Version | Previous Version | Graphics & Text | Print | Product List | Glossary Off
Versions: 1 2 3 4 5 6 7 8 9 10 11 12 13 14 15 16 17 18 19 20 21 22 23 24 25 26 27 28 29 30 31 32 33 34 35 36 37 38 39 40 41 42 43 44 45 46 47 48 49 50

000
FTUS43 KDDC 281720
TAFGCK
TAF
KGCK 281720Z 2818/2918 17010KT P6SM SKC
     FM281900 16013G23KT P6SM BKN100
     FM290000 12015G25KT P6SM OVC090
     FM290200 07008KT P6SM VCTS BKN040CB
      TEMPO 2902/2906 VRB20G45KT TSRA
     FM290600 07008KT P6SM VCSH OVC040=

USA.gov is the U.S. government's official web portal to all federal, state and local government web resources and services.